• Join FlightAware (Why Join?)
  • Login
  • US Flag 
12:38AM EDT


 

Airport Tracker/Info


-or-


 

Live Flight TrackerFlight Track Log ✈ N970SJ ✈ 09-May-2012 ✈ KPHL - KCLT

Flight Track Log - Related Links

Times and Time Zones

All times are in EDT time to prevent confusion due to time zone crossing. See the N970SJ flight status page for this flight to view local times or setup timezone preferences in your user account.

Time Position Orientation Groundspeed Altitude Reporting Facility
EDT Latitude Longitude Course Direction KTS MPH feet Rate Location/Type
10:14AM 39.8667 -75.2833 236° Southwest 191 220 1,400  Level Philadelphia TRACON
10:15AM 39.8525 -75.3106 255° West 184 212 3,300 2,640 Climbing FAA TRACON SMA TRACON (SMA)
10:15AM 39.8414 -75.3656 257° West 242 278 4,800 2,280 Climbing FAA TRACON SMA TRACON (SMA)
10:16AM 39.8306 -75.4256 271° West 253 291 6,400 2,160 Climbing FAA TRACON SMA TRACON (SMA)
10:17AM 39.8314 -75.4822 272° West 252 290 7,700 1,980 Climbing FAA TRACON SMA TRACON (SMA)
10:17AM 39.8333 -75.5456 271° West 253 291 9,100 2,100 Climbing FAA TRACON SMA TRACON (SMA)
10:18AM 39.8342 -75.6089 271° West 254 292 10,500 1,920 Climbing FAA TRACON SMA TRACON (SMA)
10:19AM 39.8353 -75.6736 267° West 305 351 11,700 1,320 Climbing FAA TRACON SMA TRACON (SMA)
10:19AM 39.8325 -75.7553 244° Southwest 337 388 12,300 1,320 Climbing FAA TRACON SMA TRACON (SMA)
10:20AM 39.8053 -75.8294 231° Southwest 324 373 13,500 1,800 Climbing FAA TRACON SMA TRACON (SMA)
10:21AM 39.7708 -75.8850 231° Southwest 317 365 14,700 1,920 Climbing FAA TRACON SMA TRACON (SMA)
10:21AM 39.7333 -75.9461 231° Southwest 314 361 16,100 1,920 Climbing FAA TRACON SMA TRACON (SMA)
10:22AM 39.6956 -76.0075 232° Southwest 318 366 17,300 1,320 Climbing FAA TRACON SMA TRACON (SMA)
10:23AM 39.6694 -76.0503 232° Southwest 329 379 17,900 1,200 Climbing FAA TRACON SMA TRACON (SMA)
10:24AM 39.5892 -76.1839 232° Southwest 363 418 19,500 1,680 Climbing Washington Center
10:26AM 39.4694 -76.3819 230° Southwest 368 423 23,200 2,040 Climbing Washington Center
10:27AM 39.3978 -76.4911 231° Southwest 380 437 25,700 2,160 Climbing Washington Center
10:28AM 39.3303 -76.6003 231° Southwest 386 444 27,700 1,860 Climbing Washington Center
10:29AM 39.2606 -76.7094 230° Southwest 393 452 29,400 1,980 Climbing Washington Center
10:30AM 39.1906 -76.8181 230° Southwest 398 458 31,700 2,280 Climbing Washington Center
10:31AM 39.1208 -76.9239 231° Southwest 398 458 34,100 2,100 Climbing Washington Center
10:32AM 39.0550 -77.0269 221° Southwest 398 458 36,000 900 Climbing Washington Center
10:33AM 38.9747 -77.1161 221° Southwest 391 450 36,000  Level Washington Center
10:34AM 38.8942 -77.2053 221° Southwest 386 444 36,000  Level Washington Center
10:35AM 38.8117 -77.2967 219° Southwest 386 444 36,000  Level Washington Center
10:36AM 38.7292 -77.3825 221° Southwest 386 444 36,000  Level Washington Center
10:37AM 38.6464 -77.4736 221° Southwest 386 444 36,000  Level Washington Center
10:38AM 38.5742 -77.5542 219° Southwest 379 436 36,000  Level Washington Center
10:39AM 38.4808 -77.6497 221° Southwest 384 442 36,000  Level Washington Center
10:40AM 38.4000 -77.7378 220° Southwest 384 442 36,000  Level Washington Center
10:41AM 38.3194 -77.8253 220° Southwest 390 449 36,000  Level Washington Center
10:42AM 38.2364 -77.9153 220° Southwest 385 443 36,000  Level Washington Center
10:43AM 38.1511 -78.0050 220° Southwest 385 443 36,000  Level Washington Center
10:44AM 38.0700 -78.0922 225° Southwest 385 443 36,000  Level Washington Center
10:45AM 37.9886 -78.1950 229° Southwest 385 443 36,000  Level Washington Center
10:46AM 37.9175 -78.2978 229° Southwest 379 436 36,000  Level Washington Center
10:47AM 37.8486 -78.3978 229° Southwest 384 442 36,000  Level Washington Center
10:48AM 37.7794 -78.4978 228° Southwest 384 442 36,000  Level Washington Center
10:49AM 37.7144 -78.5897 228° Southwest 384 442 36,000  Level Washington Center
10:50AM 37.6411 -78.6917 229° Southwest 394 453 36,000 -600 Level Washington Center
10:51AM 37.5694 -78.7961 227° Southwest 394 453 34,900 -1,020 Descending Washington Center
10:52AM 37.4936 -78.9003 218° Southwest 401 461 34,000 -480 Descending Washington Center
10:53AM 37.4078 -78.9856 218° Southwest 401 461 34,000  Level Washington Center
10:54AM 37.3069 -79.0831 216° Southwest 407 468 34,000  Level Washington Center
10:55AM 37.2169 -79.1650 217° Southwest 412 474 34,000 -180 Level Washington Center
10:56AM 37.1267 -79.2492 217° Southwest 412 474 33,700 -960 Descending Washington Center
10:57AM 37.0322 -79.3383 218° Southwest 417 480 32,100 -1,860 Descending Washington Center
10:58AM 36.9397 -79.4275 217° Southwest 424 488 30,100 -1,080 Descending Washington Center
10:59AM 36.8578 -79.5039 218° Southwest 424 488 30,000 -600 Descending Washington Center
11:00AM 36.7653 -79.5925 216° Southwest 424 488 29,000 -1,320 Descending Washington Center
11:02AM 36.5983 -79.7436 216° Southwest 417 480 26,400 -1,440 Descending Atlanta Center
11:03AM 36.5075 -79.8261 216° Southwest 417 480 25,100 -1,500 Descending Atlanta Center
11:04AM 36.4103 -79.9139 218° Southwest 412 474 23,400 -1,560 Descending Atlanta Center
11:05AM 36.3253 -79.9956 215° Southwest 407 468 22,000 -840 Descending Atlanta Center
11:06AM 36.2403 -80.0692 214° Southwest 402 463 21,800 -900 Descending Atlanta Center
11:07AM 36.1528 -80.1431 214° Southwest 396 456 20,200 -1,680 Descending Atlanta Center
11:08AM 36.0778 -80.2056 215° Southwest 386 444 18,500 -1,800 Descending Atlanta Center
11:09AM 35.9944 -80.2764 216° Southwest 373 429 16,700 -1,680 Descending Atlanta Center
11:10AM 35.9172 -80.3464 214° Southwest 336 387 15,200 -1,380 Descending Atlanta Center
11:11AM 35.8581 -80.3953 216° Southwest 307 353 14,000 -1,020 Descending Atlanta Center
11:12AM 35.7808 -80.4653 211° Southwest 277 319 13,000 -900 Descending Atlanta Center
11:13AM 35.7319 -80.5008 208° Southwest 281 323 12,200 -1,380 Descending Atlanta Center
11:14AM 35.6664 -80.5444 215° Southwest 276 318 10,500 -1,860 Descending Atlanta Center
11:15AM 35.6075 -80.5956 229° Southwest 271 312 8,500 -2,100 Descending Atlanta Center
11:16AM 35.5572 -80.6667 243° Southwest 271 312 6,400 -1,260 Descending Atlanta Center
11:17AM 35.5239 -80.7469 246° West 265 305 6,000 -720 Descending Atlanta Center
11:18AM 35.4986 -80.8169 246° West 234 269 5,000 -840 Descending Atlanta Center
11:19AM 35.4792 -80.8711 226° Southwest 204 235 4,400 -420 Descending Atlanta Center
11:20AM 35.4328 -80.9292 201° Southwest 176 203 4,000 -600 Descending Atlanta Center
11:21AM 35.3853 -80.9514 177° South 175 201 3,100 -600 Descending Atlanta Center
11:22AM 35.3372 -80.9481 177° South 176 203 2,900 -540 Descending Atlanta Center
11:23AM 35.2869 -80.9447 176° South 169 194 2,000 -840 Descending Atlanta Center
11:24AM 35.2472 -80.9411 176° South 142 163 1,200 -840 Descending Atlanta Center